Date,TemperatureHighF,TemperatureAvgF,TemperatureLowF,DewpointHighF,DewpointAvgF,DewpointLowF,HumidityHigh,HumidityAvg,HumidityLow,PressureMaxIn,PressureMinIn,WindSpeedMaxMPH,WindSpeedAvgMPH,GustSpeedMaxMPH,PrecipitationSumIn
2013-2-1,48.5,44.2,38.0,49.0,44.3,38.0,100,100,100,30.00,29.88,14,4,0,0.00
2013-2-2,55.3,49.1,43.5,55.0,46.3,36.0,100,91,58,29.90,29.75,16,5,0,0.00
2013-2-3,66.8,61.7,55.0,67.0,61.7,55.0,100,100,100,29.89,29.77,22,10,0,0.00
2013-2-4,62.6,56.3,45.5,63.0,56.4,46.0,100,100,100,30.03,29.89,14,4,0,0.00
2013-2-5,51.4,44.7,41.8,51.0,44.8,42.0,100,100,100,30.11,29.86,14,5,0,0.17
2013-2-6,55.4,48.1,41.8,55.0,48.1,42.0,100,100,100,29.86,29.69,10,2,0,0.00
2013-2-7,62.9,56.3,51.9,63.0,56.4,52.0,100,100,100,29.75,29.65,18,4,0,0.04
2013-2-8,57.5,51.0,47.7,58.0,48.8,44.0,100,92,79,29.74,29.61,24,5,0,0.25
2013-2-9,55.0,49.5,46.0,53.0,47.1,44.0,100,92,68,29.94,29.74,14,3,0,0.31
2013-2-10,52.3,47.8,44.6,51.0,47.4,45.0,100,98,90,29.94,29.82,11,2,0,0.20
2013-2-11,46.8,42.8,39.6,47.0,42.9,40.0,100,100,98,30.05,29.80,13,4,0,0.02
2013-2-12,52.2,45.5,37.5,52.0,45.2,38.0,100,98,89,30.15,30.05,12,2,0,0.00
2013-2-13,57.5,48.8,42.2,57.0,42.4,36.0,100,80,48,30.11,30.03,7,1,0,0.00
2013-2-14,49.8,44.7,42.8,45.0,42.7,37.0,100,93,62,30.03,29.80,15,7,0,0.00
2013-2-15,44.5,41.7,38.0,45.0,41.8,38.0,100,100,100,30.04,29.74,24,8,0,0.42
2013-2-16,38.8,37.8,36.5,39.0,37.9,37.0,100,100,100,30.16,30.04,12,3,0,0.00
2013-2-17,39.6,38.3,37.2,40.0,38.3,37.0,100,100,100,30.15,30.10,14,5,0,0.00
2013-2-18,42.8,39.3,36.8,43.0,39.5,37.0,100,100,100,30.14,30.09,11,5,0,0.00
2013-2-19,49.1,40.3,35.3,49.0,40.4,35.0,100,100,100,30.12,29.81,14,5,0,0.06
2013-2-20,42.3,39.6,37.5,42.0,39.7,38.0,100,100,100,30.12,29.78,12,3,0,0.05
2013-2-21,49.4,42.3,37.0,49.0,42.4,37.0,100,100,100,30.12,29.95,7,1,0,0.00
2013-2-22,49.5,45.8,41.9,50.0,45.9,42.0,100,100,100,29.97,29.69,9,2,0,0.10
2013-2-23,52.3,47.4,44.8,52.0,47.4,45.0,100,100,100,30.12,29.70,6,1,0,0.00
2013-2-24,56.3,45.9,41.8,56.0,46.0,42.0,100,100,100,30.22,30.12,11,2,0,0.01
2013-2-25,51.6,43.6,40.3,52.0,43.6,40.0,100,100,100,30.23,30.14,19,5,0,0.01
2013-2-26,44.8,43.4,42.2,45.0,43.6,42.0,100,100,100,30.15,30.04,14,6,0,0.09
2013-2-27,47.7,43.5,40.9,48.0,43.6,41.0,100,100,100,30.05,30.01,16,4,0,0.00
2013-2-28,42.6,40.6,37.8,43.0,40.6,38.0,100,100,100,30.22,30.05,16,6,0,0.10